sensor_id;sensor_type;location;lat;lon;timestamp;pressure;altitude;pressure_sealevel;temperature
19568;BMP280;9930;49.240;8.548;2023-06-22T00:02:19;100426.03;;;27.99
19568;BMP280;9930;49.240;8.548;2023-06-22T00:04:46;100418.41;;;27.91
19568;BMP280;9930;49.240;8.548;2023-06-22T00:07:12;100420.94;;;27.94
19568;BMP280;9930;49.240;8.548;2023-06-22T00:09:38;100427.94;;;27.94
19568;BMP280;9930;49.240;8.548;2023-06-22T00:12:04;100414.19;;;27.87
19568;BMP280;9930;49.240;8.548;2023-06-22T00:14:30;100419.31;;;27.90
19568;BMP280;9930;49.240;8.548;2023-06-22T00:16:56;100416.81;;;27.87
19568;BMP280;9930;49.240;8.548;2023-06-22T00:19:23;100424.56;;;27.90
19568;BMP280;9930;49.240;8.548;2023-06-22T00:21:52;100412.69;;;27.80
19568;BMP280;9930;49.240;8.548;2023-06-22T00:24:19;100408.38;;;27.78
19568;BMP280;9930;49.240;8.548;2023-06-22T00:26:46;100413.59;;;27.79
19568;BMP280;9930;49.240;8.548;2023-06-22T00:29:15;100434.69;;;27.74
19568;BMP280;9930;49.240;8.548;2023-06-22T00:31:43;100451.28;;;27.75
19568;BMP280;9930;49.240;8.548;2023-06-22T00:34:11;100490.59;;;27.75
19568;BMP280;9930;49.240;8.548;2023-06-22T00:36:40;100537.91;;;27.70
19568;BMP280;9930;49.240;8.548;2023-06-22T00:39:06;100614.69;;;27.74
19568;BMP280;9930;49.240;8.548;2023-06-22T00:41:33;100682.84;;;27.74
19568;BMP280;9930;49.240;8.548;2023-06-22T00:44:06;100724.78;;;27.74
19568;BMP280;9930;49.240;8.548;2023-06-22T00:46:32;100766.59;;;27.79
19568;BMP280;9930;49.240;8.548;2023-06-22T00:48:58;100727.28;;;27.79
19568;BMP280;9930;49.240;8.548;2023-06-22T00:51:26;100625.03;;;27.79
19568;BMP280;9930;49.240;8.548;2023-06-22T00:53:52;100498.41;;;27.77
19568;BMP280;9930;49.240;8.548;2023-06-22T00:56:19;100385.16;;;27.67
19568;BMP280;9930;49.240;8.548;2023-06-22T00:58:46;100352.72;;;27.43
19568;BMP280;9930;49.240;8.548;2023-06-22T01:01:14;100417.09;;;27.24
19568;BMP280;9930;49.240;8.548;2023-06-22T01:03:41;100476.28;;;27.00
19568;BMP280;9930;49.240;8.548;2023-06-22T01:06:18;100511.34;;;26.93
19568;BMP280;9930;49.240;8.548;2023-06-22T01:09:01;100506.19;;;26.90
19568;BMP280;9930;49.240;8.548;2023-06-22T01:11:45;100529.59;;;26.96
19568;BMP280;9930;49.240;8.548;2023-06-22T01:14:47;100546.97;;;27.00
19568;BMP280;9930;49.240;8.548;2023-06-22T01:17:16;100538.16;;;27.02
19568;BMP280;9930;49.240;8.548;2023-06-22T01:19:51;100522.50;;;27.01
19568;BMP280;9930;49.240;8.548;2023-06-22T01:22:30;100518.81;;;27.08
19568;BMP280;9930;49.240;8.548;2023-06-22T01:28:03;100500.59;;;27.03
19568;BMP280;9930;49.240;8.548;2023-06-22T01:30:31;100490.22;;;27.00
19568;BMP280;9930;49.240;8.548;2023-06-22T01:33:01;100470.38;;;26.92
19568;BMP280;9930;49.240;8.548;2023-06-22T01:35:32;100467.97;;;26.84
19568;BMP280;9930;49.240;8.548;2023-06-22T01:37:58;100475.81;;;26.84
19568;BMP280;9930;49.240;8.548;2023-06-22T01:40:28;100477.72;;;26.79
19568;BMP280;9930;49.240;8.548;2023-06-22T01:42:54;100475.41;;;26.68
19568;BMP280;9930;49.240;8.548;2023-06-22T01:45:22;100484.28;;;26.63
19568;BMP280;9930;49.240;8.548;2023-06-22T01:47:51;100496.38;;;26.67
19568;BMP280;9930;49.240;8.548;2023-06-22T01:50:17;100496.38;;;26.67
19568;BMP280;9930;49.240;8.548;2023-06-22T01:52:43;100484.09;;;26.69
19568;BMP280;9930;49.240;8.548;2023-06-22T01:55:13;100466.00;;;26.61
19568;BMP280;9930;49.240;8.548;2023-06-22T01:57:42;100472.31;;;26.54
19568;BMP280;9930;49.240;8.548;2023-06-22T02:00:18;100474.16;;;26.51
19568;BMP280;9930;49.240;8.548;2023-06-22T02:03:10;100490.63;;;26.54
19568;BMP280;9930;49.240;8.548;2023-06-22T02:05:49;100495.97;;;26.50
19568;BMP280;9930;49.240;8.548;2023-06-22T02:08:27;100497.84;;;26.44
19568;BMP280;9930;49.240;8.548;2023-06-22T02:10:56;100486.66;;;26.39
19568;BMP280;9930;49.240;8.548;2023-06-22T02:13:25;100499.56;;;26.45
19568;BMP280;9930;49.240;8.548;2023-06-22T02:15:51;100496.09;;;26.45
19568;BMP280;9930;49.240;8.548;2023-06-22T02:18:20;100496.09;;;26.45
19568;BMP280;9930;49.240;8.548;2023-06-22T02:20:46;100487.41;;;26.43
19568;BMP280;9930;49.240;8.548;2023-06-22T02:23:16;100477.13;;;26.37
19568;BMP280;9930;49.240;8.548;2023-06-22T02:25:46;100474.47;;;26.38
19568;BMP280;9930;49.240;8.548;2023-06-22T02:28:13;100474.34;;;26.43
19568;BMP280;9930;49.240;8.548;2023-06-22T02:30:39;100463.16;;;26.38
19568;BMP280;9930;49.240;8.548;2023-06-22T02:33:05;100473.53;;;26.41
19568;BMP280;9930;49.240;8.548;2023-06-22T02:35:31;100464.09;;;26.35
19568;BMP280;9930;49.240;8.548;2023-06-22T02:37:58;100464.19;;;26.31
19568;BMP280;9930;49.240;8.548;2023-06-22T02:40:29;100464.22;;;26.29
19568;BMP280;9930;49.240;8.548;2023-06-22T02:42:55;100457.44;;;26.22
19568;BMP280;9930;49.240;8.548;2023-06-22T02:45:21;100464.31;;;26.26
19568;BMP280;9930;49.240;8.548;2023-06-22T02:47:49;100471.25;;;26.27
19568;BMP280;9930;49.240;8.548;2023-06-22T02:50:17;100456.66;;;26.19
19568;BMP280;9930;49.240;8.548;2023-06-22T02:52:42;100454.03;;;26.19
19568;BMP280;9930;49.240;8.548;2023-06-22T02:55:10;100459.22;;;26.20
19568;BMP280;9930;49.240;8.548;2023-06-22T02:57:36;100447.22;;;26.13
19568;BMP280;9930;49.240;8.548;2023-06-22T03:00:03;100431.59;;;26.10
19568;BMP280;9930;49.240;8.548;2023-06-22T03:02:47;100446.28;;;26.15
19568;BMP280;9930;49.240;8.548;2023-06-22T03:05:16;100439.41;;;26.11
19568;BMP280;9930;49.240;8.548;2023-06-22T03:07:46;100432.63;;;26.04
19568;BMP280;9930;49.240;8.548;2023-06-22T03:10:15;100436.88;;;26.08
19568;BMP280;9930;49.240;8.548;2023-06-22T03:12:42;100408.69;;;25.87
19568;BMP280;9930;49.240;8.548;2023-06-22T03:15:14;100436.88;;;26.08
19568;BMP280;9930;49.240;8.548;2023-06-22T03:17:41;100432.59;;;26.06
19568;BMP280;9930;49.240;8.548;2023-06-22T03:20:09;100430.00;;;26.04
19568;BMP280;9930;49.240;8.548;2023-06-22T03:22:41;100425.72;;;26.02
19568;BMP280;9930;49.240;8.548;2023-06-22T03:25:09;100434.34;;;26.05
19568;BMP280;9930;49.240;8.548;2023-06-22T03:27:43;100434.41;;;26.02
19568;BMP280;9930;49.240;8.548;2023-06-22T03:30:14;100421.53;;;25.96
19568;BMP280;9930;49.240;8.548;2023-06-22T03:32:40;100437.03;;;26.02
19568;BMP280;9930;49.240;8.548;2023-06-22T03:35:06;100441.34;;;26.03
19568;BMP280;9930;49.240;8.548;2023-06-22T03:37:32;100434.53;;;25.99
19568;BMP280;9930;49.240;8.548;2023-06-22T03:39:58;100421.50;;;25.98
19568;BMP280;9930;49.240;8.548;2023-06-22T03:42:24;100444.78;;;26.05
19568;BMP280;9930;49.240;8.548;2023-06-22T03:44:52;100432.59;;;26.06
19568;BMP280;9930;49.240;8.548;2023-06-22T03:47:18;100425.72;;;26.02
19568;BMP280;9930;49.240;8.548;2023-06-22T03:49:46;100433.44;;;26.06
19568;BMP280;9930;49.240;8.548;2023-06-22T03:52:11;100433.41;;;26.08
19568;BMP280;9930;49.240;8.548;2023-06-22T03:54:37;100433.41;;;26.08
19568;BMP280;9930;49.240;8.548;2023-06-22T03:57:05;100432.53;;;26.07
19568;BMP280;9930;49.240;8.548;2023-06-22T03:59:31;100435.84;;;26.14
19568;BMP280;9930;49.240;8.548;2023-06-22T04:02:00;100436.63;;;26.18
19568;BMP280;9930;49.240;8.548;2023-06-22T04:04:25;100439.22;;;26.19
19568;BMP280;9930;49.240;8.548;2023-06-22T04:06:56;100425.41;;;26.14
19568;BMP280;9930;49.240;8.548;2023-06-22T04:09:26;100428.66;;;26.22
19568;BMP280;9930;49.240;8.548;2023-06-22T04:11:52;100423.44;;;26.22
19568;BMP280;9930;49.240;8.548;2023-06-22T04:14:17;100416.53;;;26.20
19568;BMP280;9930;49.240;8.548;2023-06-22T04:16:43;100426.75;;;26.29
19568;BMP280;9930;49.240;8.548;2023-06-22T04:19:11;100426.69;;;26.32
19568;BMP280;9930;49.240;8.548;2023-06-22T04:21:44;100422.25;;;26.35
19568;BMP280;9930;49.240;8.548;2023-06-22T04:24:11;100420.38;;;26.40
19568;BMP280;9930;49.240;8.548;2023-06-22T04:26:40;100415.00;;;26.45
19568;BMP280;9930;49.240;8.548;2023-06-22T04:29:08;100411.31;;;26.52
19568;BMP280;9930;49.240;8.548;2023-06-22T04:31:37;100399.06;;;26.54
19568;BMP280;9930;49.240;8.548;2023-06-22T04:34:05;100402.25;;;26.64
19568;BMP280;9930;49.240;8.548;2023-06-22T04:36:40;100404.88;;;26.64
19568;BMP280;9930;49.240;8.548;2023-06-22T04:39:17;100409.97;;;26.68
19568;BMP280;9930;49.240;8.548;2023-06-22T04:41:45;100417.53;;;26.79
19568;BMP280;9930;49.240;8.548;2023-06-22T04:44:18;100410.34;;;26.86
19568;BMP280;9930;49.240;8.548;2023-06-22T04:46:55;100403.22;;;26.91
19568;BMP280;9930;49.240;8.548;2023-06-22T04:49:30;100402.41;;;26.89
19568;BMP280;9930;49.240;8.548;2023-06-22T04:52:07;100411.03;;;26.92
19568;BMP280;9930;49.240;8.548;2023-06-22T04:54:34;100394.31;;;26.98
19568;BMP280;9930;49.240;8.548;2023-06-22T04:57:02;100391.56;;;27.02
19568;BMP280;9930;49.240;8.548;2023-06-22T04:59:30;100378.41;;;27.04
19568;BMP280;9930;49.240;8.548;2023-06-22T05:02:01;100369.31;;;27.16
19568;BMP280;9930;49.240;8.548;2023-06-22T05:04:29;100369.59;;;27.34
19568;BMP280;9930;49.240;8.548;2023-06-22T05:07:02;100385.38;;;27.59
19568;BMP280;9930;49.240;8.548;2023-06-22T05:09:29;100385.75;;;27.75
19568;BMP280;9930;49.240;8.548;2023-06-22T05:11:55;100393.50;;;28.04
19568;BMP280;9930;49.240;8.548;2023-06-22T05:14:27;100379.75;;;28.23
19568;BMP280;9930;49.240;8.548;2023-06-22T05:16:52;100384.06;;;28.49
19568;BMP280;9930;49.240;8.548;2023-06-22T05:19:19;100386.88;;;28.67
19568;BMP280;9930;49.240;8.548;2023-06-22T05:21:44;100375.59;;;28.89
19568;BMP280;9930;49.240;8.548;2023-06-22T05:24:11;100380.44;;;29.21
19568;BMP280;9930;49.240;8.548;2023-06-22T05:26:37;100378.69;;;29.44
19568;BMP280;9930;49.240;8.548;2023-06-22T05:29:04;100369.91;;;29.65
19568;BMP280;9930;49.240;8.548;2023-06-22T05:31:30;100371.50;;;29.89
19568;BMP280;9930;49.240;8.548;2023-06-22T05:33:56;100371.72;;;30.05
19568;BMP280;9930;49.240;8.548;2023-06-22T05:36:22;100382.44;;;30.21
19568;BMP280;9930;49.240;8.548;2023-06-22T05:38:56;100372.41;;;30.29
19568;BMP280;9930;49.240;8.548;2023-06-22T05:41:22;100375.69;;;30.34
19568;BMP280;9930;49.240;8.548;2023-06-22T05:43:48;100369.78;;;30.29
19568;BMP280;9930;49.240;8.548;2023-06-22T05:46:13;100372.34;;;30.31
19568;BMP280;9930;49.240;8.548;2023-06-22T05:48:42;100374.72;;;30.37
19568;BMP280;9930;49.240;8.548;2023-06-22T05:51:07;100369.03;;;30.46
19568;BMP280;9930;49.240;8.548;2023-06-22T05:53:33;100365.81;;;30.59
19568;BMP280;9930;49.240;8.548;2023-06-22T05:55:59;100371.34;;;30.72
19568;BMP280;9930;49.240;8.548;2023-06-22T05:58:24;100357.84;;;30.80
19568;BMP280;9930;49.240;8.548;2023-06-22T06:00:55;100365.28;;;30.89
19568;BMP280;9930;49.240;8.548;2023-06-22T06:03:20;100364.09;;;30.96
19568;BMP280;9930;49.240;8.548;2023-06-22T06:05:46;100365.72;;;30.99
19568;BMP280;9930;49.240;8.548;2023-06-22T06:08:18;100376.88;;;31.04
19568;BMP280;9930;49.240;8.548;2023-06-22T06:10:43;100380.44;;;31.03
19568;BMP280;9930;49.240;8.548;2023-06-22T06:13:11;100375.88;;;31.06
19568;BMP280;9930;49.240;8.548;2023-06-22T06:15:37;100353.88;;;31.07
19568;BMP280;9930;49.240;8.548;2023-06-22T06:18:05;100343.28;;;31.09
19568;BMP280;9930;49.240;8.548;2023-06-22T06:20:32;100345.13;;;31.07
19568;BMP280;9930;49.240;8.548;2023-06-22T06:22:58;100345.41;;;31.01
19568;BMP280;9930;49.240;8.548;2023-06-22T06:25:23;100351.47;;;31.03
19568;BMP280;9930;49.240;8.548;2023-06-22T06:27:51;100350.41;;;31.07
19568;BMP280;9930;49.240;8.548;2023-06-22T06:30:21;100351.25;;;31.07
19568;BMP280;9930;49.240;8.548;2023-06-22T06:32:47;100356.38;;;31.10
19568;BMP280;9930;49.240;8.548;2023-06-22T06:35:16;100355.38;;;31.13
19568;BMP280;9930;49.240;8.548;2023-06-22T06:37:45;100361.06;;;31.22
19568;BMP280;9930;49.240;8.548;2023-06-22T06:40:13;100357.47;;;31.23
19568;BMP280;9930;49.240;8.548;2023-06-22T06:42:47;100350.22;;;31.29
19568;BMP280;9930;49.240;8.548;2023-06-22T06:45:21;100348.75;;;31.40
19568;BMP280;9930;49.240;8.548;2023-06-22T06:47:52;100347.22;;;31.53
19568;BMP280;9930;49.240;8.548;2023-06-22T06:50:18;100327.28;;;31.65
19568;BMP280;9930;49.240;8.548;2023-06-22T06:52:44;100339.31;;;31.88
19568;BMP280;9930;49.240;8.548;2023-06-22T06:55:11;100322.44;;;32.08
19568;BMP280;9930;49.240;8.548;2023-06-22T06:57:45;100320.22;;;32.33
19568;BMP280;9930;49.240;8.548;2023-06-22T07:00:17;100314.78;;;32.52
19568;BMP280;9930;49.240;8.548;2023-06-22T07:02:46;100318.28;;;32.68
19568;BMP280;9930;49.240;8.548;2023-06-22T07:05:15;100314.22;;;32.78
19568;BMP280;9930;49.240;8.548;2023-06-22T07:07:41;100328.53;;;32.90
19568;BMP280;9930;49.240;8.548;2023-06-22T07:10:10;100319.50;;;32.94
19568;BMP280;9930;49.240;8.548;2023-06-22T07:12:44;100312.41;;;33.10
19568;BMP280;9930;49.240;8.548;2023-06-22T07:15:17;100310.84;;;33.22
19568;BMP280;9930;49.240;8.548;2023-06-22T07:17:45;100309.72;;;33.26
19568;BMP280;9930;49.240;8.548;2023-06-22T07:20:12;100299.78;;;33.15
19568;BMP280;9930;49.240;8.548;2023-06-22T07:22:44;100300.97;;;33.10
19568;BMP280;9930;49.240;8.548;2023-06-22T07:25:13;100314.47;;;33.05
19568;BMP280;9930;49.240;8.548;2023-06-22T07:28:00;100293.59;;;33.01
19568;BMP280;9930;49.240;8.548;2023-06-22T07:30:32;100289.19;;;32.86
19568;BMP280;9930;49.240;8.548;2023-06-22T07:32:59;100291.38;;;32.62
19568;BMP280;9930;49.240;8.548;2023-06-22T07:35:31;100299.28;;;32.62
19568;BMP280;9930;49.240;8.548;2023-06-22T07:38:00;100299.72;;;32.70
19568;BMP280;9930;49.240;8.548;2023-06-22T07:40:29;100297.88;;;32.88
19568;BMP280;9930;49.240;8.548;2023-06-22T07:42:57;100292.50;;;32.89
19568;BMP280;9930;49.240;8.548;2023-06-22T07:45:22;100305.53;;;32.92
19568;BMP280;9930;49.240;8.548;2023-06-22T07:47:48;100293.44;;;32.88
19568;BMP280;9930;49.240;8.548;2023-06-22T07:50:14;100290.53;;;32.93
19568;BMP280;9930;49.240;8.548;2023-06-22T07:52:41;100291.97;;;32.98
19568;BMP280;9930;49.240;8.548;2023-06-22T07:55:08;100285.06;;;32.96
19568;BMP280;9930;49.240;8.548;2023-06-22T07:57:34;100297.13;;;33.15
19568;BMP280;9930;49.240;8.548;2023-06-22T08:00:04;100298.56;;;33.21
19568;BMP280;9930;49.240;8.548;2023-06-22T08:02:42;100301.09;;;33.38
19568;BMP280;9930;49.240;8.548;2023-06-22T08:05:13;100291.22;;;33.42
19568;BMP280;9930;49.240;8.548;2023-06-22T08:07:42;100302.00;;;33.53
19568;BMP280;9930;49.240;8.548;2023-06-22T08:10:11;100269.38;;;33.38
19568;BMP280;9930;49.240;8.548;2023-06-22T08:12:45;100305.41;;;33.55
19568;BMP280;9930;49.240;8.548;2023-06-22T08:15:12;100288.28;;;33.46
19568;BMP280;9930;49.240;8.548;2023-06-22T08:17:44;100290.34;;;33.41
19568;BMP280;9930;49.240;8.548;2023-06-22T08:20:14;100289.78;;;33.36
19568;BMP280;9930;49.240;8.548;2023-06-22T08:22:45;100297.34;;;33.42
19568;BMP280;9930;49.240;8.548;2023-06-22T08:25:14;100298.78;;;33.48
19568;BMP280;9930;49.240;8.548;2023-06-22T08:27:42;100297.84;;;33.49
19568;BMP280;9930;49.240;8.548;2023-06-22T08:30:10;100287.94;;;33.53
19568;BMP280;9930;49.240;8.548;2023-06-22T08:32:36;100285.94;;;33.56
19568;BMP280;9930;49.240;8.548;2023-06-22T08:35:02;100288.88;;;33.52
19568;BMP280;9930;49.240;8.548;2023-06-22T08:37:28;100292.09;;;33.57
19568;BMP280;9930;49.240;8.548;2023-06-22T08:40:01;100280.56;;;33.58
19568;BMP280;9930;49.240;8.548;2023-06-22T08:42:29;100294.63;;;33.58
19568;BMP280;9930;49.240;8.548;2023-06-22T08:44:55;100308.53;;;33.62
19568;BMP280;9930;49.240;8.548;2023-06-22T08:47:21;100302.75;;;33.55
19568;BMP280;9930;49.240;8.548;2023-06-22T08:49:48;100317.41;;;33.61
19568;BMP280;9930;49.240;8.548;2023-06-22T08:52:15;100321.19;;;33.57
19568;BMP280;9930;49.240;8.548;2023-06-22T08:54:42;100325.06;;;33.65
19568;BMP280;9930;49.240;8.548;2023-06-22T08:57:08;100332.06;;;33.66
19568;BMP280;9930;49.240;8.548;2023-06-22T08:59:34;100331.41;;;33.77
19568;BMP280;9930;49.240;8.548;2023-06-22T09:02:02;100326.84;;;33.81
19568;BMP280;9930;49.240;8.548;2023-06-22T09:04:28;100329.97;;;33.87
19568;BMP280;9930;49.240;8.548;2023-06-22T09:06:53;100283.94;;;33.90
19568;BMP280;9930;49.240;8.548;2023-06-22T09:09:22;100285.34;;;33.95
19568;BMP280;9930;49.240;8.548;2023-06-22T09:11:50;100282.13;;;34.04
19568;BMP280;9930;49.240;8.548;2023-06-22T09:14:18;100281.00;;;34.08
19568;BMP280;9930;49.240;8.548;2023-06-22T09:16:46;100263.22;;;34.10
19568;BMP280;9930;49.240;8.548;2023-06-22T09:19:13;100257.66;;;34.15
19568;BMP280;9930;49.240;8.548;2023-06-22T09:21:42;100239.13;;;34.15
19568;BMP280;9930;49.240;8.548;2023-06-22T09:24:13;100244.88;;;34.22
19568;BMP280;9930;49.240;8.548;2023-06-22T09:26:39;100229.53;;;34.27
19568;BMP280;9930;49.240;8.548;2023-06-22T09:29:05;100218.69;;;34.31
19568;BMP280;9930;49.240;8.548;2023-06-22T09:31:32;100242.22;;;34.36
19568;BMP280;9930;49.240;8.548;2023-06-22T09:34:02;100229.09;;;34.34
19568;BMP280;9930;49.240;8.548;2023-06-22T09:36:30;100229.84;;;34.36
19568;BMP280;9930;49.240;8.548;2023-06-22T09:38:56;100215.44;;;34.40
19568;BMP280;9930;49.240;8.548;2023-06-22T09:41:26;100235.94;;;34.51
19568;BMP280;9930;49.240;8.548;2023-06-22T09:43:52;100229.25;;;34.46
19568;BMP280;9930;49.240;8.548;2023-06-22T09:46:18;100223.09;;;34.45
19568;BMP280;9930;49.240;8.548;2023-06-22T09:48:48;100219.22;;;34.51
19568;BMP280;9930;49.240;8.548;2023-06-22T09:51:15;100209.75;;;34.47
19568;BMP280;9930;49.240;8.548;2023-06-22T09:53:41;100207.00;;;34.48
19568;BMP280;9930;49.240;8.548;2023-06-22T09:56:07;100198.56;;;34.56
19568;BMP280;9930;49.240;8.548;2023-06-22T09:58:36;100203.47;;;34.62
19568;BMP280;9930;49.240;8.548;2023-06-22T10:01:04;100187.88;;;34.57
19568;BMP280;9930;49.240;8.548;2023-06-22T10:03:32;100164.03;;;34.57
19568;BMP280;9930;49.240;8.548;2023-06-22T10:06:02;100172.66;;;34.73
19568;BMP280;9930;49.240;8.548;2023-06-22T10:08:31;100184.16;;;34.87
19568;BMP280;9930;49.240;8.548;2023-06-22T10:10:56;100168.81;;;34.92
19568;BMP280;9930;49.240;8.548;2023-06-22T10:13:22;100163.59;;;34.90
19568;BMP280;9930;49.240;8.548;2023-06-22T10:15:48;100161.59;;;34.94
19568;BMP280;9930;49.240;8.548;2023-06-22T10:18:17;100147.72;;;34.90
19568;BMP280;9930;49.240;8.548;2023-06-22T10:20:47;100140.44;;;34.80
19568;BMP280;9930;49.240;8.548;2023-06-22T10:23:14;100143.50;;;34.73
19568;BMP280;9930;49.240;8.548;2023-06-22T10:25:43;100140.97;;;34.72
19568;BMP280;9930;49.240;8.548;2023-06-22T10:28:09;100160.06;;;34.77
19568;BMP280;9930;49.240;8.548;2023-06-22T10:30:39;100147.63;;;34.65
19568;BMP280;9930;49.240;8.548;2023-06-22T10:33:10;100159.38;;;34.61
19568;BMP280;9930;49.240;8.548;2023-06-22T10:35:37;100161.72;;;34.65
19568;BMP280;9930;49.240;8.548;2023-06-22T10:38:08;100150.28;;;34.65
19568;BMP280;9930;49.240;8.548;2023-06-22T10:40:34;100151.44;;;34.61
19568;BMP280;9930;49.240;8.548;2023-06-22T10:43:02;100149.53;;;34.63
19568;BMP280;9930;49.240;8.548;2023-06-22T10:45:30;100161.72;;;34.65
19568;BMP280;9930;49.240;8.548;2023-06-22T10:47:56;100153.78;;;34.65
19568;BMP280;9930;49.240;8.548;2023-06-22T10:50:25;100151.06;;;34.80
19568;BMP280;9930;49.240;8.548;2023-06-22T10:52:51;100142.47;;;34.76
19568;BMP280;9930;49.240;8.548;2023-06-22T10:55:16;100136.41;;;34.74
19568;BMP280;9930;49.240;8.548;2023-06-22T10:57:43;100123.91;;;34.76
19568;BMP280;9930;49.240;8.548;2023-06-22T11:00:13;100125.31;;;34.82
19568;BMP280;9930;49.240;8.548;2023-06-22T11:02:39;100129.25;;;34.89
19568;BMP280;9930;49.240;8.548;2023-06-22T11:05:06;100114.94;;;34.91
19568;BMP280;9930;49.240;8.548;2023-06-22T11:07:32;100118.25;;;34.95
19568;BMP280;9930;49.240;8.548;2023-06-22T11:09:58;100110.94;;;34.98
19568;BMP280;9930;49.240;8.548;2023-06-22T11:12:26;100123.13;;;35.14
19568;BMP280;9930;49.240;8.548;2023-06-22T11:14:52;100127.06;;;35.21
19568;BMP280;9930;49.240;8.548;2023-06-22T11:17:20;100111.56;;;35.15
19568;BMP280;9930;49.240;8.548;2023-06-22T11:19:46;100135.31;;;35.29
19568;BMP280;9930;49.240;8.548;2023-06-22T11:22:12;100117.94;;;35.25
19568;BMP280;9930;49.240;8.548;2023-06-22T11:24:38;100117.94;;;35.25
19568;BMP280;9930;49.240;8.548;2023-06-22T11:27:04;100127.94;;;35.34
19568;BMP280;9930;49.240;8.548;2023-06-22T11:29:34;100127.38;;;35.42
19568;BMP280;9930;49.240;8.548;2023-06-22T11:32:01;100114.75;;;35.45
19568;BMP280;9930;49.240;8.548;2023-06-22T11:34:29;100117.28;;;35.59
19568;BMP280;9930;49.240;8.548;2023-06-22T11:36:57;100105.38;;;35.65
19568;BMP280;9930;49.240;8.548;2023-06-22T11:39:23;100111.50;;;35.78
19568;BMP280;9930;49.240;8.548;2023-06-22T11:41:48;100104.50;;;35.77
19568;BMP280;9930;49.240;8.548;2023-06-22T11:44:16;100101.66;;;35.80
19568;BMP280;9930;49.240;8.548;2023-06-22T11:46:42;100108.22;;;35.87
19568;BMP280;9930;49.240;8.548;2023-06-22T11:49:10;100096.53;;;35.90
19568;BMP280;9930;49.240;8.548;2023-06-22T11:51:36;100102.47;;;35.93
19568;BMP280;9930;49.240;8.548;2023-06-22T11:54:04;100105.00;;;35.95
19568;BMP280;9930;49.240;8.548;2023-06-22T11:56:33;100099.91;;;35.92
19568;BMP280;9930;49.240;8.548;2023-06-22T11:59:01;100100.88;;;35.91
19568;BMP280;9930;49.240;8.548;2023-06-22T12:01:27;100091.22;;;35.90
19568;BMP280;9930;49.240;8.548;2023-06-22T12:03:52;100091.97;;;35.92
19568;BMP280;9930;49.240;8.548;2023-06-22T12:06:18;100110.81;;;36.00
19568;BMP280;9930;49.240;8.548;2023-06-22T12:08:44;100114.72;;;36.07
19568;BMP280;9930;49.240;8.548;2023-06-22T12:11:10;100110.16;;;36.09
19568;BMP280;9930;49.240;8.548;2023-06-22T12:13:36;100123.81;;;36.16
19568;BMP280;9930;49.240;8.548;2023-06-22T12:16:01;100117.22;;;36.21
19568;BMP280;9930;49.240;8.548;2023-06-22T12:18:29;100120.38;;;36.26
19568;BMP280;9930;49.240;8.548;2023-06-22T12:20:55;100128.66;;;36.35
19568;BMP280;9930;49.240;8.548;2023-06-22T12:23:23;100125.16;;;36.45
19568;BMP280;9930;49.240;8.548;2023-06-22T12:25:51;100116.75;;;36.51
19568;BMP280;9930;49.240;8.548;2023-06-22T12:28:16;100125.72;;;36.61
19568;BMP280;9930;49.240;8.548;2023-06-22T12:30:42;100122.09;;;36.62
19568;BMP280;9930;49.240;8.548;2023-06-22T12:33:10;100110.84;;;36.59
19568;BMP280;9930;49.240;8.548;2023-06-22T12:35:38;100110.00;;;36.58
19568;BMP280;9930;49.240;8.548;2023-06-22T12:38:10;100110.97;;;36.57
19568;BMP280;9930;49.240;8.548;2023-06-22T12:40:40;100105.66;;;36.57
19568;BMP280;9930;49.240;8.548;2023-06-22T12:43:06;100120.03;;;36.66
19568;BMP280;9930;49.240;8.548;2023-06-22T12:45:33;100126.31;;;36.65
19568;BMP280;9930;49.240;8.548;2023-06-22T12:48:01;100131.63;;;36.65
19568;BMP280;9930;49.240;8.548;2023-06-22T12:50:29;100137.81;;;36.65
19568;BMP280;9930;49.240;8.548;2023-06-22T12:52:55;100143.22;;;36.64
19568;BMP280;9930;49.240;8.548;2023-06-22T12:55:20;100137.31;;;36.60
19568;BMP280;9930;49.240;8.548;2023-06-22T12:57:46;100150.59;;;36.60
19568;BMP280;9930;49.240;8.548;2023-06-22T13:00:14;100150.00;;;36.68
19568;BMP280;9930;49.240;8.548;2023-06-22T13:02:41;100140.13;;;36.70
19568;BMP280;9930;49.240;8.548;2023-06-22T13:05:11;100125.75;;;36.73
19568;BMP280;9930;49.240;8.548;2023-06-22T13:07:39;100114.69;;;36.79
19568;BMP280;9930;49.240;8.548;2023-06-22T13:10:13;100103.81;;;36.82
19568;BMP280;9930;49.240;8.548;2023-06-22T13:12:39;100106.63;;;36.91
19568;BMP280;9930;49.240;8.548;2023-06-22T13:15:06;100113.25;;;36.97
19568;BMP280;9930;49.240;8.548;2023-06-22T13:17:32;100113.03;;;37.00
19568;BMP280;9930;49.240;8.548;2023-06-22T13:19:57;100104.94;;;37.02
19568;BMP280;9930;49.240;8.548;2023-06-22T13:22:33;100102.03;;;37.05
19568;BMP280;9930;49.240;8.548;2023-06-22T13:25:06;100089.09;;;37.00
19568;BMP280;9930;49.240;8.548;2023-06-22T13:27:34;100092.38;;;37.04
19568;BMP280;9930;49.240;8.548;2023-06-22T13:29:59;100090.56;;;37.04
19568;BMP280;9930;49.240;8.548;2023-06-22T13:32:25;100088.97;;;37.02
19568;BMP280;9930;49.240;8.548;2023-06-22T13:34:54;100092.25;;;37.05
19568;BMP280;9930;49.240;8.548;2023-06-22T13:37:22;100066.38;;;36.96
19568;BMP280;9930;49.240;8.548;2023-06-22T13:39:50;100078.09;;;37.05
19568;BMP280;9930;49.240;8.548;2023-06-22T13:42:16;100062.03;;;37.06
19568;BMP280;9930;49.240;8.548;2023-06-22T13:44:44;100070.25;;;37.14
19568;BMP280;9930;49.240;8.548;2023-06-22T13:47:13;100070.00;;;37.17
19568;BMP280;9930;49.240;8.548;2023-06-22T13:49:43;100047.53;;;37.10
19568;BMP280;9930;49.240;8.548;2023-06-22T13:52:10;100041.38;;;37.10
19568;BMP280;9930;49.240;8.548;2023-06-22T13:54:38;100026.50;;;37.07
19568;BMP280;9930;49.240;8.548;2023-06-22T13:57:04;100037.00;;;37.09
19568;BMP280;9930;49.240;8.548;2023-06-22T13:59:32;100035.69;;;37.03
19568;BMP280;9930;49.240;8.548;2023-06-22T14:01:58;100020.81;;;36.89
19568;BMP280;9930;49.240;8.548;2023-06-22T14:04:26;100016.47;;;36.88
19568;BMP280;9930;49.240;8.548;2023-06-22T14:06:52;100027.56;;;36.82
19568;BMP280;9930;49.240;8.548;2023-06-22T14:09:21;100034.81;;;36.80
19568;BMP280;9930;49.240;8.548;2023-06-22T14:11:49;100041.84;;;36.81
19568;BMP280;9930;49.240;8.548;2023-06-22T14:14:17;100056.31;;;36.77
19568;BMP280;9930;49.240;8.548;2023-06-22T14:16:44;100051.22;;;36.74
19568;BMP280;9930;49.240;8.548;2023-06-22T14:19:13;100038.16;;;36.71